Aurora, CO (80011)

11:33 AM MDT on August 26, 2016 (GMT -0600)
Rinker - Norfolk Glen | | Change Station

Elev 5456 ft 39.75 °N, 104.80 °W | Updated 32 seconds ago

Scattered Clouds
Scattered Clouds
68.4 °F
Feels Like 68.4 °F
N
0.9
Wind Variable Wind from WNW
Gusts 3.0 mph

Today
High -- | Low -- °F
--% Chance of Precip.
Yesterday
High -- | Low -- °F
Precip. -- in
Pressure 30.04 in
Visibility 10.0 miles
Clouds Few 2000 ft
Scattered Clouds 11000 ft
Scattered Clouds 22000 ft
Dew Point 56 °F
Humidity 64%
Rainfall 0.00 in
Snow Depth Not available.
6:22 AM 7:38 PM
Waning Crescent, 33% visible
METAR KBKF 261658Z VRB03KT 10SM FEW020 SCT110 SCT220 17/09 A3019 RMK AO2A SLP171 T01680094
Pressure 30.04 in
Visibility 10.0 miles
Clouds Few 2000 ft
Scattered Clouds 11000 ft
Scattered Clouds 22000 ft
Dew Point 56 °F
Humidity 64%
Rainfall 0.00 in
Snow Depth Not available.
6:22 AM 7:38 PM
Waning Crescent, 33% visible
METAR KBKF 261658Z VRB03KT 10SM FEW020 SCT110 SCT220 17/09 A3019 RMK AO2A SLP171 T01680094

10-Day Weather Forecast

Almanac

Astronomy

Aug. 26, 2016 Rise Set
Actual Time
Civil Twilight
Nautical Twilight
Astronomical Twilight
Moon
Length of Visible Light
Length of Day
Tomorrow will be .
, % of the Moon is Illuminated

Today's Extremes

State Highs State Lows

Community

WunderPhotos

Upload Photos

1,935,151 photos uploaded!

WunderBlog® & News

Nearby

Air Quality

  Air Quality AQ Index Pollutant
Not available.

Snow Depth

Station Depth Elevation

Earthquake Activity

City Distance Mag. Time & Date
Minimum magnitude displayed is 2.5.

Coastal Water Temperatures

Place Temperature

Stations

Nearby Weather Stations

Station Location Temp. Windchill Dew Point Humidity Wind Precip. Elev Updated Type
                   

Watches & Warnings

There are currently no watches in effect.